createdAt,value
2022-10-14T00:00:37.609Z,12.93
2022-10-14T00:03:06.966Z,12.90
2022-10-14T00:05:35.035Z,12.87
2022-10-14T00:08:03.074Z,12.86
2022-10-14T00:10:31.132Z,12.85
2022-10-14T00:12:59.118Z,12.84
2022-10-14T00:15:27.143Z,12.82
2022-10-14T00:17:55.130Z,12.82
2022-10-14T00:20:24.518Z,12.81
2022-10-14T00:22:52.502Z,12.81
2022-10-14T00:25:20.500Z,12.81
2022-10-14T00:27:48.540Z,12.81
2022-10-14T00:30:16.542Z,12.82
2022-10-14T00:32:44.543Z,12.80
2022-10-14T00:35:12.716Z,12.80
2022-10-14T00:37:42.085Z,12.79
2022-10-14T00:40:11.438Z,12.79
2022-10-14T00:42:40.207Z,12.78
2022-10-14T00:45:14.292Z,12.78
2022-10-14T00:47:43.640Z,12.76
2022-10-14T00:50:12.838Z,12.77
2022-10-14T00:52:42.286Z,12.77
2022-10-14T00:55:14.431Z,12.77
2022-10-14T00:57:42.558Z,12.78
2022-10-14T01:00:13.034Z,12.78
2022-10-14T01:02:41.460Z,12.79
2022-10-14T01:05:11.406Z,12.79
2022-10-14T01:07:53.212Z,12.80
2022-10-14T01:10:28.656Z,12.81
2022-10-14T01:13:06.254Z,12.81
2022-10-14T01:15:39.794Z,12.81
2022-10-14T01:18:24.347Z,12.81
2022-10-14T01:21:23.388Z,12.81
2022-10-14T01:24:24.257Z,12.80
2022-10-14T01:27:11.724Z,12.80
2022-10-14T01:30:08.935Z,12.79
2022-10-14T01:32:44.164Z,12.80
2022-10-14T01:35:18.159Z,12.81
2022-10-14T01:37:50.433Z,12.80
2022-10-14T01:40:24.046Z,12.79
2022-10-14T01:42:53.648Z,12.78
2022-10-14T01:45:24.506Z,12.77
2022-10-14T01:47:54.818Z,12.77
2022-10-14T01:50:24.960Z,12.75
2022-10-14T01:52:56.760Z,12.75
2022-10-14T01:55:28.396Z,12.76
2022-10-14T01:57:58.454Z,12.77
2022-10-14T02:00:27.839Z,12.75
2022-10-14T02:02:55.854Z,12.77
2022-10-14T02:05:29.587Z,12.77
2022-10-14T02:08:02.630Z,12.76
2022-10-14T02:10:41.562Z,12.77
2022-10-14T02:13:20.446Z,12.77
2022-10-14T02:15:59.154Z,12.78
2022-10-14T02:18:31.090Z,12.79
2022-10-14T02:21:04.464Z,12.79
2022-10-14T02:23:38.252Z,12.80
2022-10-14T02:26:07.184Z,12.81
2022-10-14T02:28:35.714Z,12.80
2022-10-14T02:31:08.736Z,12.81
2022-10-14T02:33:40.369Z,12.81
2022-10-14T02:36:10.386Z,12.81
2022-10-14T02:38:39.083Z,12.80
2022-10-14T02:41:11.479Z,12.81
2022-10-14T02:43:39.479Z,12.79
2022-10-14T02:46:09.054Z,12.79
2022-10-14T02:48:37.115Z,12.79
2022-10-14T02:51:05.159Z,12.81
2022-10-14T02:53:33.172Z,12.81
2022-10-14T02:56:01.187Z,12.82
2022-10-14T02:58:29.202Z,12.81
2022-10-14T03:00:57.212Z,12.82
2022-10-14T03:03:26.658Z,12.83
2022-10-14T03:05:54.654Z,12.84
2022-10-14T03:08:22.622Z,12.85
2022-10-14T03:10:50.636Z,12.87
2022-10-14T03:13:18.601Z,12.88
2022-10-14T03:15:49.371Z,12.88
2022-10-14T03:18:17.384Z,12.88
2022-10-14T03:20:47.262Z,12.89
2022-10-14T03:23:15.274Z,12.90
2022-10-14T03:25:44.973Z,12.90
2022-10-14T03:28:12.971Z,12.91
2022-10-14T03:30:41.326Z,12.92
2022-10-14T03:33:12.113Z,12.92
2022-10-14T03:35:42.783Z,12.92
2022-10-14T03:38:12.236Z,12.93
2022-10-14T03:40:40.234Z,12.92
2022-10-14T03:43:08.252Z,12.92
2022-10-14T03:45:36.286Z,12.94
2022-10-14T03:48:04.570Z,12.92
2022-10-14T03:50:32.611Z,12.93
2022-10-14T03:53:00.619Z,12.92
2022-10-14T03:55:29.978Z,12.91
2022-10-14T03:57:57.942Z,12.89
2022-10-14T04:00:25.939Z,12.88
2022-10-14T04:02:53.932Z,12.86
2022-10-14T04:05:21.946Z,12.85
2022-10-14T04:07:49.942Z,12.85
2022-10-14T04:10:17.999Z,12.84
2022-10-14T04:12:48.399Z,12.83
2022-10-14T04:15:16.427Z,12.82
2022-10-14T04:17:44.446Z,12.80
2022-10-14T04:20:12.935Z,12.81
2022-10-14T04:22:40.956Z,12.78
2022-10-14T04:25:10.157Z,12.77
2022-10-14T04:27:38.152Z,12.77
2022-10-14T04:30:08.756Z,12.75
2022-10-14T04:32:36.820Z,12.74
2022-10-14T04:35:05.404Z,12.73
2022-10-14T04:37:33.417Z,12.73
2022-10-14T04:40:01.427Z,12.72
2022-10-14T04:42:29.401Z,12.71
2022-10-14T04:44:57.420Z,12.70
2022-10-14T04:47:26.766Z,12.69
2022-10-14T04:49:54.790Z,12.66
2022-10-14T04:52:23.062Z,12.65
2022-10-14T04:54:51.361Z,12.65
2022-10-14T04:57:19.384Z,12.63
2022-10-14T04:59:47.362Z,12.62
2022-10-14T05:02:15.479Z,12.61
2022-10-14T05:04:44.880Z,12.61
2022-10-14T05:07:12.957Z,12.60
2022-10-14T05:09:44.012Z,12.59
2022-10-14T05:12:14.708Z,12.57
2022-10-14T05:14:42.720Z,12.58
2022-10-14T05:17:10.698Z,12.57
2022-10-14T05:19:38.708Z,12.56
2022-10-14T05:22:08.091Z,12.55
2022-10-14T05:24:36.102Z,12.54
2022-10-14T05:27:04.303Z,12.54
2022-10-14T05:29:32.292Z,12.52
2022-10-14T05:32:00.299Z,12.52
2022-10-14T05:34:28.437Z,12.50
2022-10-14T05:36:56.465Z,12.48
2022-10-14T05:39:25.884Z,12.48
2022-10-14T05:41:53.934Z,12.46
2022-10-14T05:44:21.921Z,12.46
2022-10-14T05:46:49.945Z,12.45
2022-10-14T05:49:17.969Z,12.44
2022-10-14T05:51:46.031Z,12.43
2022-10-14T05:54:14.055Z,12.44
2022-10-14T05:56:43.436Z,12.42
2022-10-14T05:59:11.688Z,12.44
2022-10-14T06:01:40.690Z,12.43
2022-10-14T06:04:08.689Z,12.41
2022-10-14T06:06:36.664Z,12.41
2022-10-14T06:09:07.708Z,12.41
2022-10-14T06:11:39.122Z,12.41
2022-10-14T06:14:08.684Z,12.43
2022-10-14T06:16:36.712Z,12.44
2022-10-14T06:19:04.803Z,12.45
2022-10-14T06:21:33.132Z,12.44
2022-10-14T06:24:01.156Z,12.46
2022-10-14T06:26:29.230Z,12.47
2022-10-14T06:28:57.524Z,12.47
2022-10-14T06:31:31.349Z,12.47
2022-10-14T06:34:00.570Z,12.49
2022-10-14T06:36:28.627Z,12.50
2022-10-14T06:38:56.601Z,12.51
2022-10-14T06:41:25.420Z,12.52
2022-10-14T06:43:53.627Z,12.54
2022-10-14T06:46:21.601Z,12.54
2022-10-14T06:48:50.959Z,12.54
2022-10-14T06:51:19.046Z,12.57
2022-10-14T06:53:47.066Z,12.58
2022-10-14T06:56:15.263Z,12.61
2022-10-14T06:58:43.305Z,12.63
2022-10-14T07:01:11.663Z,12.65
2022-10-14T07:03:40.108Z,12.68
2022-10-14T07:06:10.166Z,12.70
2022-10-14T07:08:38.140Z,12.70
2022-10-14T07:11:06.517Z,12.71
2022-10-14T07:13:35.266Z,12.70
2022-10-14T07:16:03.326Z,12.71
2022-10-14T07:18:31.909Z,12.72
2022-10-14T07:21:03.180Z,12.72
2022-10-14T07:23:32.649Z,12.72
2022-10-14T07:26:01.577Z,12.74
2022-10-14T07:28:29.967Z,12.75
2022-10-14T07:30:59.954Z,12.77
2022-10-14T07:33:28.029Z,12.80
2022-10-14T07:35:56.242Z,12.82
2022-10-14T07:38:24.231Z,12.85
2022-10-14T07:41:01.764Z,12.90
2022-10-14T07:43:30.574Z,12.92
2022-10-14T07:46:02.690Z,12.95
2022-10-14T07:48:45.272Z,13.00
2022-10-14T07:51:20.445Z,13.04
2022-10-14T07:53:50.170Z,13.07
2022-10-14T07:56:19.894Z,13.11
2022-10-14T07:58:48.005Z,13.16
2022-10-14T08:01:16.882Z,13.21
2022-10-14T08:03:45.031Z,13.26
2022-10-14T08:06:13.569Z,13.32
2022-10-14T08:08:42.376Z,13.37
2022-10-14T08:11:12.872Z,13.42
2022-10-14T08:13:45.279Z,13.47
2022-10-14T08:16:19.340Z,13.52
2022-10-14T08:18:48.019Z,13.58
2022-10-14T08:21:16.680Z,13.65
2022-10-14T08:23:44.843Z,13.71
2022-10-14T08:26:20.328Z,13.75
2022-10-14T08:28:49.814Z,13.77
2022-10-14T08:31:17.980Z,13.83
2022-10-14T08:33:46.088Z,13.89
2022-10-14T08:36:14.439Z,13.91
2022-10-14T08:38:44.264Z,13.94
2022-10-14T08:41:24.989Z,13.98
2022-10-14T08:44:02.737Z,14.03
2022-10-14T08:46:37.128Z,14.08
2022-10-14T08:49:12.912Z,14.14
2022-10-14T08:51:44.637Z,14.20
2022-10-14T08:54:16.787Z,14.23
2022-10-14T08:56:45.009Z,14.23
2022-10-14T08:59:16.810Z,14.24
2022-10-14T09:01:50.526Z,14.26
2022-10-14T09:04:18.749Z,14.27
2022-10-14T09:06:49.315Z,14.32
2022-10-14T09:09:23.039Z,14.35
2022-10-14T09:11:54.944Z,14.39
2022-10-14T09:14:27.135Z,14.41
2022-10-14T09:16:58.576Z,14.44
2022-10-14T09:19:30.389Z,14.45
2022-10-14T09:24:30.017Z,14.46
2022-10-14T09:26:59.533Z,14.46
2022-10-14T09:29:30.600Z,14.47
2022-10-14T09:32:00.943Z,14.53
2022-10-14T09:34:35.569Z,14.59
2022-10-14T09:37:28.527Z,14.61
2022-10-14T09:40:00.040Z,14.61
2022-10-14T09:42:33.085Z,14.62
2022-10-14T09:45:11.995Z,14.62
2022-10-14T09:47:45.919Z,14.63
2022-10-14T09:50:25.496Z,14.61
2022-10-14T09:52:56.550Z,14.60
2022-10-14T09:55:25.513Z,14.62
2022-10-14T09:58:15.675Z,14.62
2022-10-14T10:00:46.373Z,14.62
2022-10-14T10:03:26.578Z,14.62
2022-10-14T10:06:06.121Z,14.64
2022-10-14T10:08:35.621Z,14.64
2022-10-14T10:11:07.152Z,14.65
2022-10-14T10:13:39.445Z,14.68
2022-10-14T10:16:19.687Z,14.70
2022-10-14T10:18:47.829Z,14.69
2022-10-14T10:21:21.053Z,14.70
2022-10-14T10:23:54.836Z,14.68
2022-10-14T10:26:26.032Z,14.71
2022-10-14T10:28:57.454Z,14.76
2022-10-14T10:31:49.134Z,14.80
2022-10-14T10:34:52.185Z,14.82
2022-10-14T10:37:28.702Z,14.83
2022-10-14T10:40:18.434Z,14.79
2022-10-14T10:42:56.580Z,14.76
2022-10-14T10:45:36.794Z,14.73
2022-10-14T10:48:12.351Z,14.76
2022-10-14T10:50:48.526Z,14.81
2022-10-14T10:53:43.492Z,14.89
2022-10-14T10:56:18.353Z,14.97
2022-10-14T10:58:58.570Z,15.07
2022-10-14T11:01:37.074Z,15.18
2022-10-14T11:04:26.956Z,15.31
2022-10-14T11:07:21.036Z,15.41
2022-10-14T11:10:15.359Z,15.47
2022-10-14T11:12:51.236Z,15.60
2022-10-14T11:15:26.629Z,15.79
2022-10-14T11:17:59.808Z,15.94
2022-10-14T11:20:37.111Z,16.08
2022-10-14T11:23:25.565Z,16.23
2022-10-14T11:25:57.196Z,16.46
2022-10-14T11:28:29.264Z,16.64
2022-10-14T11:31:02.486Z,16.70
2022-10-14T11:33:46.095Z,16.70
2022-10-14T11:36:24.484Z,16.65
2022-10-14T11:39:06.962Z,16.57
2022-10-14T11:41:43.943Z,16.47
2022-10-14T11:44:17.002Z,16.39
2022-10-14T11:46:48.883Z,16.35
2022-10-14T11:49:20.921Z,16.31
2022-10-14T11:51:53.746Z,16.29
2022-10-14T11:54:28.665Z,16.29
2022-10-14T11:57:00.284Z,16.34
2022-10-14T11:59:40.033Z,16.41
2022-10-14T12:02:27.040Z,16.46
2022-10-14T12:04:59.516Z,16.47
2022-10-14T12:07:34.018Z,16.42
2022-10-14T12:10:04.967Z,16.42
2022-10-14T12:12:36.471Z,16.46
2022-10-14T12:15:07.623Z,16.49
2022-10-14T12:17:39.806Z,16.52
2022-10-14T12:20:17.561Z,16.56
2022-10-14T12:22:48.715Z,16.61
2022-10-14T12:25:20.393Z,16.65
2022-10-14T12:27:49.401Z,16.71
2022-10-14T12:30:35.072Z,16.84
2022-10-14T12:33:04.383Z,16.99
2022-10-14T12:35:53.381Z,17.12
2022-10-14T12:38:22.951Z,17.10
2022-10-14T12:40:50.988Z,17.02
2022-10-14T12:43:25.586Z,16.93
2022-10-14T12:46:20.248Z,16.85
2022-10-14T12:48:51.798Z,16.78
2022-10-14T12:51:21.233Z,16.76
2022-10-14T12:53:58.568Z,16.74
2022-10-14T12:56:31.533Z,16.73
2022-10-14T12:59:02.414Z,16.74
2022-10-14T13:01:35.284Z,16.73
2022-10-14T13:04:08.105Z,16.73
2022-10-14T13:06:38.635Z,16.69
2022-10-14T13:09:32.882Z,16.61
2022-10-14T13:12:45.484Z,16.47
2022-10-14T13:15:51.349Z,16.35
2022-10-14T13:18:50.601Z,16.28
2022-10-14T13:21:31.185Z,16.22
2022-10-14T13:24:01.944Z,16.22
2022-10-14T13:26:38.053Z,16.30
2022-10-14T13:29:17.521Z,16.38
2022-10-14T13:31:53.114Z,16.38
2022-10-14T13:34:30.557Z,16.37
2022-10-14T13:37:24.603Z,16.38
2022-10-14T13:39:52.586Z,16.38
2022-10-14T13:42:25.965Z,16.35
2022-10-14T13:44:55.467Z,16.31
2022-10-14T13:47:24.572Z,16.26
2022-10-14T13:49:52.797Z,16.21
2022-10-14T13:52:25.712Z,16.15
2022-10-14T13:55:07.502Z,16.09
2022-10-14T13:58:07.419Z,16.05
2022-10-14T14:00:44.942Z,16.03
2022-10-14T14:03:19.908Z,16.03
2022-10-14T14:05:48.482Z,16.01
2022-10-14T14:08:40.209Z,16.01
2022-10-14T14:11:17.179Z,16.00
2022-10-14T14:13:56.128Z,16.00
2022-10-14T14:16:33.507Z,15.98
2022-10-14T14:19:08.911Z,15.94
2022-10-14T14:21:37.206Z,15.91
2022-10-14T14:24:16.154Z,15.89
2022-10-14T14:26:44.895Z,15.87
2022-10-14T14:29:18.998Z,15.86
2022-10-14T14:32:06.806Z,15.83
2022-10-14T14:34:36.805Z,15.81
2022-10-14T14:37:43.495Z,15.77
2022-10-14T14:39:57.192Z,15.72
2022-10-14T14:42:26.146Z,15.66
2022-10-14T14:44:58.565Z,15.63
2022-10-14T14:47:28.190Z,15.59
2022-10-14T14:50:18.389Z,15.54
2022-10-14T14:52:48.030Z,15.51
2022-10-14T14:55:40.797Z,15.46
2022-10-14T14:58:21.154Z,15.41
2022-10-14T15:00:51.642Z,15.35
2022-10-14T15:03:19.700Z,15.29
2022-10-14T15:05:52.358Z,15.21
2022-10-14T15:08:22.881Z,15.15
2022-10-14T15:10:51.648Z,15.09
2022-10-14T15:13:43.679Z,15.01
2022-10-14T15:16:13.214Z,14.96
2022-10-14T15:18:43.530Z,14.90
2022-10-14T15:21:19.976Z,14.86
2022-10-14T15:24:03.239Z,14.82
2022-10-14T15:26:34.535Z,14.76
2022-10-14T15:29:12.903Z,14.73
2022-10-14T15:31:44.250Z,14.70
2022-10-14T15:34:23.245Z,14.67
2022-10-14T15:36:53.986Z,14.64
2022-10-14T15:39:22.829Z,14.59
2022-10-14T15:41:50.830Z,14.57
2022-10-14T15:44:18.856Z,14.55
2022-10-14T15:47:05.763Z,14.53
2022-10-14T15:49:37.154Z,14.50
2022-10-14T15:52:05.247Z,14.49
2022-10-14T15:54:33.232Z,14.45
2022-10-14T15:57:01.239Z,14.43
2022-10-14T15:59:29.240Z,14.39
2022-10-14T16:01:58.869Z,14.36
2022-10-14T16:04:28.006Z,14.33
2022-10-14T16:06:57.589Z,14.31
2022-10-14T16:09:27.741Z,14.28
2022-10-14T16:11:58.138Z,14.23
2022-10-14T16:14:27.130Z,14.20
2022-10-14T16:16:55.569Z,14.18
2022-10-14T16:19:25.288Z,14.16
2022-10-14T16:21:53.599Z,14.13
2022-10-14T16:24:24.821Z,14.11
2022-10-14T16:26:53.230Z,14.09
2022-10-14T16:29:21.807Z,14.07
2022-10-14T16:31:50.444Z,14.04
2022-10-14T16:34:19.172Z,14.03
2022-10-14T16:36:48.984Z,14.01
2022-10-14T16:39:17.771Z,13.98
2022-10-14T16:41:45.875Z,13.96
2022-10-14T16:44:24.652Z,13.94
2022-10-14T16:47:11.076Z,13.92
2022-10-14T16:49:39.653Z,13.90
2022-10-14T16:52:09.268Z,13.88
2022-10-14T16:54:37.403Z,13.87
2022-10-14T16:57:06.063Z,13.85
2022-10-14T16:59:34.325Z,13.83
2022-10-14T17:02:02.602Z,13.82
2022-10-14T17:04:30.646Z,13.81
2022-10-14T17:06:58.967Z,13.82
2022-10-14T17:09:28.366Z,13.78
2022-10-14T17:11:56.353Z,13.78
2022-10-14T17:14:24.417Z,13.77
2022-10-14T17:16:52.670Z,13.76
2022-10-14T17:19:20.768Z,13.77
2022-10-14T17:21:48.781Z,13.74
2022-10-14T17:24:17.390Z,13.75
2022-10-14T17:26:46.970Z,13.73
2022-10-14T17:29:15.000Z,13.73
2022-10-14T17:31:43.011Z,13.71
2022-10-14T17:34:11.071Z,13.72
2022-10-14T17:36:40.045Z,13.73
2022-10-14T17:39:16.326Z,13.74
2022-10-14T17:41:50.734Z,13.74
2022-10-14T17:44:18.862Z,13.75
2022-10-14T17:46:46.953Z,13.74
2022-10-14T17:49:15.017Z,13.73
2022-10-14T17:51:43.113Z,13.72
2022-10-14T17:54:12.303Z,13.70
2022-10-14T17:56:40.722Z,13.69
2022-10-14T17:59:14.134Z,13.69
2022-10-14T18:02:02.494Z,13.69
2022-10-14T18:04:30.560Z,13.70
2022-10-14T18:06:58.985Z,13.69
2022-10-14T18:09:27.001Z,13.69
2022-10-14T18:12:10.646Z,13.67
2022-10-14T18:14:40.709Z,13.66
2022-10-14T18:17:10.684Z,13.67
2022-10-14T18:19:39.423Z,13.67
2022-10-14T18:22:07.626Z,13.67
2022-10-14T18:24:38.505Z,13.69
2022-10-14T18:27:07.186Z,13.69
2022-10-14T18:29:35.233Z,13.69
2022-10-14T18:32:04.756Z,13.69
2022-10-14T18:34:33.070Z,13.67
2022-10-14T18:37:01.076Z,13.68
2022-10-14T18:39:29.112Z,13.67
2022-10-14T18:41:57.115Z,13.66
2022-10-14T18:44:25.155Z,13.65
2022-10-14T18:46:53.384Z,13.66
2022-10-14T18:49:22.755Z,13.65
2022-10-14T18:51:51.895Z,13.64
2022-10-14T18:54:23.615Z,13.64
2022-10-14T18:56:51.883Z,13.65
2022-10-14T18:59:21.414Z,13.63
2022-10-14T19:01:52.808Z,13.63
2022-10-14T19:04:23.607Z,13.60
2022-10-14T19:06:51.674Z,13.58
2022-10-14T19:09:21.547Z,13.57
2022-10-14T19:11:51.598Z,13.54
2022-10-14T19:14:20.698Z,13.53
2022-10-14T19:16:49.861Z,13.50
2022-10-14T19:19:19.838Z,13.47
2022-10-14T19:21:54.121Z,13.45
2022-10-14T19:24:22.253Z,13.45
2022-10-14T19:26:50.448Z,13.44
2022-10-14T19:29:18.610Z,13.44
2022-10-14T19:31:46.739Z,13.43
2022-10-14T19:34:16.607Z,13.42
2022-10-14T19:36:45.413Z,13.41
2022-10-14T19:39:16.374Z,13.39
2022-10-14T19:41:46.314Z,13.40
2022-10-14T19:44:16.015Z,13.39
2022-10-14T19:46:44.835Z,13.38
2022-10-14T19:49:13.914Z,13.37
2022-10-14T19:51:41.957Z,13.35
2022-10-14T19:54:12.117Z,13.34
2022-10-14T19:56:41.711Z,13.32
2022-10-14T19:59:10.265Z,13.33
2022-10-14T20:01:38.354Z,13.33
2022-10-14T20:04:07.002Z,13.34
2022-10-14T20:06:37.933Z,13.34
2022-10-14T20:09:06.809Z,13.37
2022-10-14T20:11:35.881Z,13.37
2022-10-14T20:14:05.239Z,13.41
2022-10-14T20:16:33.570Z,13.44
2022-10-14T20:19:01.664Z,13.46
2022-10-14T20:21:31.014Z,13.48
2022-10-14T20:23:59.424Z,13.50
2022-10-14T20:26:27.888Z,13.52
2022-10-14T20:28:56.075Z,13.52
2022-10-14T20:31:26.311Z,13.52
2022-10-14T20:33:56.976Z,13.50
2022-10-14T20:36:25.311Z,13.49
2022-10-14T20:38:53.408Z,13.48
2022-10-14T20:41:24.539Z,13.48
2022-10-14T20:43:53.889Z,13.47
2022-10-14T20:46:23.254Z,13.46
2022-10-14T20:48:56.102Z,13.46
2022-10-14T20:51:24.447Z,13.47
2022-10-14T20:54:00.409Z,13.47
2022-10-14T20:56:31.944Z,13.48
2022-10-14T20:59:01.300Z,13.48
2022-10-14T21:01:30.665Z,13.48
2022-10-14T21:04:01.389Z,13.50
2022-10-14T21:06:30.028Z,13.52
2022-10-14T21:08:58.399Z,13.51
2022-10-14T21:11:27.967Z,13.51
2022-10-14T21:13:57.649Z,13.52
2022-10-14T21:16:27.330Z,13.52
2022-10-14T21:18:58.042Z,13.51
2022-10-14T21:21:28.835Z,13.52
2022-10-14T21:23:57.362Z,13.52
2022-10-14T21:26:25.567Z,13.51
2022-10-14T21:28:53.719Z,13.51
2022-10-14T21:31:22.361Z,13.52
2022-10-14T21:33:55.655Z,13.50
2022-10-14T21:36:23.762Z,13.49
2022-10-14T21:38:53.301Z,13.50
2022-10-14T21:41:21.353Z,13.51
2022-10-14T21:43:49.549Z,13.52
2022-10-14T21:46:17.879Z,13.52
2022-10-14T21:48:46.041Z,13.51
2022-10-14T21:51:16.195Z,13.52
2022-10-14T21:53:45.563Z,13.51
2022-10-14T21:56:16.254Z,13.52
2022-10-14T21:58:44.494Z,13.52
2022-10-14T22:01:14.189Z,13.52
2022-10-14T22:03:43.218Z,13.53
2022-10-14T22:06:13.986Z,13.52
2022-10-14T22:08:43.583Z,13.54
2022-10-14T22:11:18.112Z,13.54
2022-10-14T22:13:46.722Z,13.56
2022-10-14T22:16:16.872Z,13.57
2022-10-14T22:18:46.740Z,13.59
2022-10-14T22:21:16.680Z,13.61
2022-10-14T22:23:45.152Z,13.62
2022-10-14T22:26:15.330Z,13.64
2022-10-14T22:28:45.073Z,13.65
2022-10-14T22:31:15.934Z,13.67
2022-10-14T22:33:44.141Z,13.68
2022-10-14T22:36:14.411Z,13.68
2022-10-14T22:38:44.912Z,13.70
2022-10-14T22:41:13.587Z,13.69
2022-10-14T22:43:41.638Z,13.70
2022-10-14T22:46:13.526Z,13.73
2022-10-14T22:48:41.563Z,13.74
2022-10-14T22:51:11.177Z,13.75
2022-10-14T22:53:40.345Z,13.75
2022-10-14T22:56:10.704Z,13.76
2022-10-14T22:58:38.930Z,13.77
2022-10-14T23:01:07.367Z,13.78
2022-10-14T23:03:37.216Z,13.79
2022-10-14T23:06:07.354Z,13.79
2022-10-14T23:08:36.126Z,13.80
2022-10-14T23:11:05.106Z,13.82
2022-10-14T23:13:33.928Z,13.83
2022-10-14T23:16:03.449Z,13.86
2022-10-14T23:18:33.658Z,13.87
2022-10-14T23:21:10.312Z,13.87
2022-10-14T23:23:38.769Z,13.88
2022-10-14T23:26:09.177Z,13.88
2022-10-14T23:28:37.332Z,13.90
2022-10-14T23:31:13.078Z,13.90
2022-10-14T23:33:41.477Z,13.91
2022-10-14T23:36:13.082Z,13.90
2022-10-14T23:38:41.536Z,13.91
2022-10-14T23:41:11.754Z,13.90
2022-10-14T23:43:40.337Z,13.92
2022-10-14T23:46:08.792Z,13.91
2022-10-14T23:48:37.529Z,13.91
2022-10-14T23:51:06.157Z,13.90
2022-10-14T23:53:36.087Z,13.91
2022-10-14T23:56:05.740Z,13.92
2022-10-14T23:58:34.138Z,13.93
